Time;durP1;ratioP1;P1;durP2;ratioP2;P2;SDS_P1;SDS_P2;PMS_P1;PMS_P2;Temp;Humidity;BMP_temperature;BMP_pressure;BME280_temperature;BME280_humidity;BME280_pressure;Samples;Min_cycle;Max_cycle;Signal;HPM_P1;HPM_P2
2023/03/04 00:02:06;;;;;;;;;;;;;;;;;;7369229;19;1323;-64
2023/03/04 00:04:34;;;;;;;;;;;;;;;;;;7369446;19;794;-65
2023/03/04 00:07:03;;;;;;;;;;;;;;;;;;7370548;19;1911;-65
2023/03/04 00:09:31;;;;;;;;;;;;;;;;;;7370391;19;2273;-65
2023/03/04 00:11:59;;;;;;;;;;;;;;;;;;7367507;19;1325;-65
2023/03/04 00:14:27;;;;;;;;;;;;;;;;;;7368920;19;805;-65
2023/03/04 00:16:55;;;;;;;;;;;;;;;;;;7371056;19;1955;-65
2023/03/04 00:19:23;;;;;;;;;;;;;;;;;;7365742;19;1837;-65
2023/03/04 00:21:52;;;;;;;;;;;;;;;;;;7363771;19;1286;-66
2023/03/04 00:24:20;;;;;;;;;;;;;;;;;;7366643;19;799;-65
2023/03/04 00:26:48;;;;;;;;;;;;;;;;;;7367661;19;1584;-66
2023/03/04 00:29:16;;;;;;;;;;;;;;;;;;7367315;19;835;-65
2023/03/04 00:31:44;;;;;;;;;;;;;;;;;;7373461;19;1279;-65
2023/03/04 00:34:12;;;;;;;;;;;;;;;;;;7382936;19;859;-65
2023/03/04 00:36:43;;;;;;;;;;;;;;;;;;7382638;19;1867;-65
2023/03/04 00:39:11;;;;;;;;;;;;;;;;;;7379013;19;1830;-65
2023/03/04 00:41:39;;;;;;;;;;;;;;;;;;7378869;19;1294;-66
2023/03/04 00:44:07;;;;;;;;;;;;;;;;;;7381846;19;779;-65
2023/03/04 00:46:35;;;;;;;;;;;;;;;;;;7379995;19;1707;-65
2023/03/04 00:49:04;;;;;;;;;;;;;;;;;;7375975;19;732;-65
2023/03/04 00:51:32;;;;;;;;;;;;;;;;;;7378230;19;1333;-65
2023/03/04 00:54:00;;;;;;;;;;;;;;;;;;7377527;19;869;-64
2023/03/04 00:56:28;;;;;;;;;;;;;;;;;;7377241;19;1893;-65
2023/03/04 00:58:56;;;;;;;;;;;;;;;;;;7377498;19;795;-65
2023/03/04 01:01:24;;;;;;;;;;;;;;;;;;7377512;19;1842;-65
2023/03/04 01:03:52;;;;;;;;;;;;;;;;;;7370217;19;838;-65
2023/03/04 01:06:21;;;;;;;;;;;;;;;;;;7366685;19;1952;-64
2023/03/04 01:08:49;;;;;;;;;;;;;;;;;;7364897;19;849;-65
2023/03/04 01:11:17;;;;;;;;;;;;;;;;;;7368334;19;2134;-65
2023/03/04 01:13:45;;;;;;;;;;;;;;;;;;7367655;19;803;-64
2023/03/04 01:16:13;;;;;;;;;;;;;;;;;;7366739;19;2228;-64
2023/03/04 01:18:41;;;;;;;;;;;;;;;;;;7364923;19;835;-64
2023/03/04 01:21:10;;;;;;;;;;;;;;;;;;7363395;19;1858;-65
2023/03/04 01:23:38;;;;;;;;;;;;;;;;;;7365487;19;863;-64
2023/03/04 01:26:06;;;;;;;;;;;;;;;;;;7365389;19;804;-64
2023/03/04 01:28:34;;;;;;;;;;;;;;;;;;7366878;19;1675;-64
2023/03/04 01:31:02;;;;;;;;;;;;;;;;;;7364322;19;1405;-64
2023/03/04 01:33:31;;;;;;;;;;;;;;;;;;7363531;19;2191;-65
2023/03/04 01:35:59;;;;;;;;;;;;;;;;;;7364544;19;814;-64
2023/03/04 01:38:27;;;;;;;;;;;;;;;;;;7368473;19;2121;-64
2023/03/04 01:40:55;;;;;;;;;;;;;;;;;;7363295;19;1846;-64
2023/03/04 01:43:23;;;;;;;;;;;;;;;;;;7365001;19;858;-64
2023/03/04 01:45:51;;;;;;;;;;;;;;;;;;7364787;19;781;-64
2023/03/04 01:48:20;;;;;;;;;;;;;;;;;;7369031;19;1834;-64
2023/03/04 01:50:48;;;;;;;;;;;;;;;;;;7370070;19;1557;-64
2023/03/04 01:53:16;;;;;;;;;;;;;;;;;;7363890;19;795;-64
2023/03/04 01:55:44;;;;;;;;;;;;;;;;;;7364952;19;842;-64
2023/03/04 01:58:12;;;;;;;;;;;;;;;;;;7368975;19;1735;-64
2023/03/04 02:00:41;;;;;;;;;;;;;;;;;;7364324;19;1853;-64
2023/03/04 02:03:10;;;;;;;;;;;;;;;;;;7364309;19;792;-64
2023/03/04 02:05:38;;;;;;;;;;;;;;;;;;7367582;19;1828;-64
2023/03/04 02:08:06;;;;;;;;;;;;;;;;;;7366860;19;1834;-64
2023/03/04 02:10:35;;;;;;;;;;;;;;;;;;7363885;19;811;-64
2023/03/04 02:13:03;;;;;;;;;;;;;;;;;;7364022;19;821;-64
2023/03/04 02:15:31;;;;;;;;;;;;;;;;;;7364693;19;820;-65
2023/03/04 02:17:59;;;;;;;;;;;;;;;;;;7368004;19;1710;-65
2023/03/04 02:20:27;;;;;;;;;;;;;;;;;;7363123;19;1833;-65
2023/03/04 02:22:55;;;;;;;;;;;;;;;;;;7363944;19;1865;-64
2023/03/04 02:25:23;;;;;;;;;;;;;;;;;;7365530;19;855;-66
2023/03/04 02:27:52;;;;;;;;;;;;;;;;;;7366213;19;1898;-65
2023/03/04 02:30:20;;;;;;;;;;;;;;;;;;7366070;19;768;-67
2023/03/04 02:32:48;;;;;;;;;;;;;;;;;;7360704;19;1392;-65
2023/03/04 02:35:16;;;;;;;;;;;;;;;;;;7362090;19;773;-65
2023/03/04 02:37:44;;;;;;;;;;;;;;;;;;7364619;19;1930;-65
2023/03/04 02:40:12;;;;;;;;;;;;;;;;;;7360849;19;1846;-65
2023/03/04 02:42:41;;;;;;;;;;;;;;;;;;7358803;19;1333;-65
2023/03/04 02:45:09;;;;;;;;;;;;;;;;;;7364513;19;2216;-64
2023/03/04 02:47:37;;;;;;;;;;;;;;;;;;7367095;19;1938;-65
2023/03/04 02:50:05;;;;;;;;;;;;;;;;;;7363236;19;855;-65
2023/03/04 02:52:33;;;;;;;;;;;;;;;;;;7360937;19;1384;-65
2023/03/04 02:55:01;;;;;;;;;;;;;;;;;;7363579;19;811;-65
2023/03/04 02:57:29;;;;;;;;;;;;;;;;;;7364502;19;1885;-65
2023/03/04 02:59:58;;;;;;;;;;;;;;;;;;7363627;19;1841;-65
2023/03/04 03:02:28;;;;;;;;;;;;;;;;;;7364172;19;2148;-65
2023/03/04 03:04:56;;;;;;;;;;;;;;;;;;7363077;19;820;-65
2023/03/04 03:07:24;;;;;;;;;;;;;;;;;;7364714;19;1892;-65
2023/03/04 03:09:53;;;;;;;;;;;;;;;;;;7362442;19;847;-65
2023/03/04 03:12:21;;;;;;;;;;;;;;;;;;7360669;19;1334;-65
2023/03/04 03:14:50;;;;;;;;;;;;;;;;;;7363848;19;815;-65
2023/03/04 03:17:20;;;;;;;;;;;;;;;;;;7362044;19;1964;-64
2023/03/04 03:19:48;;;;;;;;;;;;;;;;;;7362624;19;888;-65
2023/03/04 03:22:17;;;;;;;;;;;;;;;;;;7361697;19;1294;-64
2023/03/04 03:24:45;;;;;;;;;;;;;;;;;;7361970;19;828;-65
2023/03/04 03:27:13;;;;;;;;;;;;;;;;;;7362720;19;1670;-65
2023/03/04 03:29:41;;;;;;;;;;;;;;;;;;7362849;19;818;-65
2023/03/04 03:32:10;;;;;;;;;;;;;;;;;;7359385;19;1298;-65
2023/03/04 03:34:38;;;;;;;;;;;;;;;;;;7362813;19;910;-65
2023/03/04 03:37:06;;;;;;;;;;;;;;;;;;7363907;19;1919;-65
2023/03/04 03:39:34;;;;;;;;;;;;;;;;;;7362531;19;748;-65
2023/03/04 03:42:02;;;;;;;;;;;;;;;;;;7357885;19;1830;-65
2023/03/04 03:44:30;;;;;;;;;;;;;;;;;;7359621;19;767;-65
2023/03/04 03:46:58;;;;;;;;;;;;;;;;;;7360482;19;1902;-65
2023/03/04 03:49:27;;;;;;;;;;;;;;;;;;7362794;19;1884;-65
2023/03/04 03:51:55;;;;;;;;;;;;;;;;;;7359935;19;1320;-64
2023/03/04 03:54:23;;;;;;;;;;;;;;;;;;7362608;19;810;-67
2023/03/04 03:56:51;;;;;;;;;;;;;;;;;;7370887;19;1792;-65
2023/03/04 03:59:19;;;;;;;;;;;;;;;;;;7368403;19;796;-64
2023/03/04 04:01:47;;;;;;;;;;;;;;;;;;7367634;19;1849;-65
2023/03/04 04:04:16;;;;;;;;;;;;;;;;;;7367961;19;829;-65
2023/03/04 04:06:44;;;;;;;;;;;;;;;;;;7369701;19;1641;-64
2023/03/04 04:09:12;;;;;;;;;;;;;;;;;;7366971;19;815;-64
2023/03/04 04:11:40;;;;;;;;;;;;;;;;;;7367499;19;1330;-64
2023/03/04 04:14:08;;;;;;;;;;;;;;;;;;7366266;19;758;-64
2023/03/04 04:16:36;;;;;;;;;;;;;;;;;;7369021;19;862;-64
2023/03/04 04:19:04;;;;;;;;;;;;;;;;;;7372362;19;1968;-64
2023/03/04 04:21:33;;;;;;;;;;;;;;;;;;7367039;19;1838;-64
2023/03/04 04:24:01;;;;;;;;;;;;;;;;;;7367677;19;843;-64
2023/03/04 04:26:29;;;;;;;;;;;;;;;;;;7368054;19;866;-64
2023/03/04 04:28:57;;;;;;;;;;;;;;;;;;7371487;19;1837;-64
2023/03/04 04:31:25;;;;;;;;;;;;;;;;;;7367227;19;1283;-64
2023/03/04 04:33:53;;;;;;;;;;;;;;;;;;7367478;19;824;-64
2023/03/04 04:36:21;;;;;;;;;;;;;;;;;;7368645;19;822;-64
2023/03/04 04:38:50;;;;;;;;;;;;;;;;;;7370562;19;1628;-64
2023/03/04 04:41:18;;;;;;;;;;;;;;;;;;7367208;19;1859;-64
2023/03/04 04:43:46;;;;;;;;;;;;;;;;;;7367768;19;805;-64
2023/03/04 04:46:14;;;;;;;;;;;;;;;;;;7367767;19;849;-64
2023/03/04 04:48:43;;;;;;;;;;;;;;;;;;7369676;19;1909;-65
2023/03/04 04:51:11;;;;;;;;;;;;;;;;;;7365049;19;1948;-64
2023/03/04 04:53:39;;;;;;;;;;;;;;;;;;7364866;19;862;-66
2023/03/04 04:56:07;;;;;;;;;;;;;;;;;;7366220;19;857;-64
2023/03/04 04:58:35;;;;;;;;;;;;;;;;;;7369236;19;2124;-65
2023/03/04 05:01:03;;;;;;;;;;;;;;;;;;7369713;19;1869;-64
2023/03/04 05:03:32;;;;;;;;;;;;;;;;;;7366823;19;859;-66
2023/03/04 05:06:00;;;;;;;;;;;;;;;;;;7366775;19;797;-66
2023/03/04 05:08:28;;;;;;;;;;;;;;;;;;7369063;19;1815;-66
2023/03/04 05:10:56;;;;;;;;;;;;;;;;;;7367367;19;1888;-66
2023/03/04 05:13:24;;;;;;;;;;;;;;;;;;7366395;19;890;-66
2023/03/04 05:15:52;;;;;;;;;;;;;;;;;;7367508;19;829;-66
2023/03/04 05:18:20;;;;;;;;;;;;;;;;;;7368313;19;1894;-66
2023/03/04 05:20:49;;;;;;;;;;;;;;;;;;7366468;19;1854;-64
2023/03/04 05:23:17;;;;;;;;;;;;;;;;;;7366819;19;826;-64
2023/03/04 05:25:45;;;;;;;;;;;;;;;;;;7366518;19;854;-64
2023/03/04 05:28:13;;;;;;;;;;;;;;;;;;7368352;19;1924;-64
2023/03/04 05:30:41;;;;;;;;;;;;;;;;;;7366633;19;1326;-64
2023/03/04 05:33:09;;;;;;;;;;;;;;;;;;7365943;19;909;-66
2023/03/04 05:35:38;;;;;;;;;;;;;;;;;;7367739;19;839;-64
2023/03/04 05:38:06;;;;;;;;;;;;;;;;;;7368018;19;1616;-64
2023/03/04 05:40:34;;;;;;;;;;;;;;;;;;7366350;19;1839;-66
2023/03/04 05:43:02;;;;;;;;;;;;;;;;;;7366881;19;808;-66
2023/03/04 05:45:30;;;;;;;;;;;;;;;;;;7368426;19;1890;-63
2023/03/04 05:47:58;;;;;;;;;;;;;;;;;;7367824;19;1718;-66
2023/03/04 05:50:26;;;;;;;;;;;;;;;;;;7366570;19;803;-66
2023/03/04 05:52:54;;;;;;;;;;;;;;;;;;7363731;19;1683;-66
2023/03/04 05:55:23;;;;;;;;;;;;;;;;;;7366267;19;869;-66
2023/03/04 05:57:51;;;;;;;;;;;;;;;;;;7363694;19;1895;-66
2023/03/04 06:00:19;;;;;;;;;;;;;;;;;;7363037;19;797;-65
2023/03/04 06:02:47;;;;;;;;;;;;;;;;;;7360239;19;1858;-65
2023/03/04 06:05:15;;;;;;;;;;;;;;;;;;7364037;19;861;-65
2023/03/04 06:07:44;;;;;;;;;;;;;;;;;;7365048;19;1854;-64
2023/03/04 06:10:12;;;;;;;;;;;;;;;;;;7364719;19;798;-65
2023/03/04 06:12:40;;;;;;;;;;;;;;;;;;7359859;19;1298;-65
2023/03/04 06:15:09;;;;;;;;;;;;;;;;;;7367023;19;1898;-65
2023/03/04 06:17:37;;;;;;;;;;;;;;;;;;7366316;19;1887;-65
2023/03/04 06:20:08;;;;;;;;;;;;;;;;;;7363095;19;810;-65
2023/03/04 06:22:36;;;;;;;;;;;;;;;;;;7364978;19;1867;-66
2023/03/04 06:25:04;;;;;;;;;;;;;;;;;;7366865;19;1939;-66
2023/03/04 06:27:32;;;;;;;;;;;;;;;;;;7366797;19;1665;-66
2023/03/04 06:30:01;;;;;;;;;;;;;;;;;;7365018;19;807;-65
2023/03/04 06:32:29;;;;;;;;;;;;;;;;;;7362491;19;1357;-65
2023/03/04 06:34:57;;;;;;;;;;;;;;;;;;7366297;19;1899;-65
2023/03/04 06:37:25;;;;;;;;;;;;;;;;;;7366549;19;1679;-65
2023/03/04 06:39:54;;;;;;;;;;;;;;;;;;7363113;19;775;-65
2023/03/04 06:42:23;;;;;;;;;;;;;;;;;;7362829;19;1854;-66
2023/03/04 06:44:51;;;;;;;;;;;;;;;;;;7364335;19;850;-66
2023/03/04 06:47:19;;;;;;;;;;;;;;;;;;7366194;19;2009;-65
2023/03/04 06:49:48;;;;;;;;;;;;;;;;;;7363747;19;819;-65
2023/03/04 06:52:16;;;;;;;;;;;;;;;;;;7362218;19;1294;-65
2023/03/04 06:54:44;;;;;;;;;;;;;;;;;;7363761;19;841;-65
2023/03/04 06:57:12;;;;;;;;;;;;;;;;;;7365315;19;1997;-64
2023/03/04 06:59:40;;;;;;;;;;;;;;;;;;7362709;19;884;-65
2023/03/04 07:02:08;;;;;;;;;;;;;;;;;;7365539;19;1878;-65
2023/03/04 07:04:37;;;;;;;;;;;;;;;;;;7360242;19;853;-65
2023/03/04 07:07:05;;;;;;;;;;;;;;;;;;7361535;19;672;-65
2023/03/04 07:09:33;;;;;;;;;;;;;;;;;;7362135;19;797;-65
2023/03/04 07:12:01;;;;;;;;;;;;;;;;;;7360296;19;1219;-65
2023/03/04 07:14:29;;;;;;;;;;;;;;;;;;7361213;19;850;-64
2023/03/04 07:16:57;;;;;;;;;;;;;;;;;;7360459;19;798;-64
2023/03/04 07:19:26;;;;;;;;;;;;;;;;;;7360908;19;854;-64
2023/03/04 07:21:54;;;;;;;;;;;;;;;;;;7360075;19;1891;-64
2023/03/04 07:24:22;;;;;;;;;;;;;;;;;;7362262;19;854;-64
2023/03/04 07:26:50;;;;;;;;;;;;;;;;;;7361772;19;748;-64
2023/03/04 07:29:18;;;;;;;;;;;;;;;;;;7363373;19;786;-64
2023/03/04 07:31:46;;;;;;;;;;;;;;;;;;7370239;19;1981;-66
2023/03/04 07:34:14;;;;;;;;;;;;;;;;;;7370010;19;867;-66
2023/03/04 07:36:43;;;;;;;;;;;;;;;;;;7373724;19;1880;-66
2023/03/04 07:39:11;;;;;;;;;;;;;;;;;;7372167;19;1889;-67
2023/03/04 07:41:39;;;;;;;;;;;;;;;;;;7369195;19;1928;-67
2023/03/04 07:44:08;;;;;;;;;;;;;;;;;;7372485;19;1864;-67
2023/03/04 07:46:36;;;;;;;;;;;;;;;;;;7367781;19;824;-67
2023/03/04 07:49:04;;;;;;;;;;;;;;;;;;7368839;19;819;-67
2023/03/04 07:51:33;;;;;;;;;;;;;;;;;;7369140;19;1280;-67
2023/03/04 07:54:01;;;;;;;;;;;;;;;;;;7369039;19;890;-67
2023/03/04 07:56:30;;;;;;;;;;;;;;;;;;7368230;19;866;-66
2023/03/04 07:58:58;;;;;;;;;;;;;;;;;;7368105;19;798;-66
2023/03/04 08:01:26;;;;;;;;;;;;;;;;;;7367735;19;1830;-66
2023/03/04 08:03:54;;;;;;;;;;;;;;;;;;7368185;19;790;-68
2023/03/04 08:06:22;;;;;;;;;;;;;;;;;;7368757;19;867;-67
2023/03/04 08:08:51;;;;;;;;;;;;;;;;;;7368023;19;814;-66
2023/03/04 08:11:19;;;;;;;;;;;;;;;;;;7367400;19;1933;-66
2023/03/04 08:13:47;;;;;;;;;;;;;;;;;;7367960;19;837;-66
2023/03/04 08:16:16;;;;;;;;;;;;;;;;;;7368023;19;870;-67
2023/03/04 08:18:44;;;;;;;;;;;;;;;;;;7368422;19;861;-67
2023/03/04 08:21:12;;;;;;;;;;;;;;;;;;7366052;19;1279;-66
2023/03/04 08:23:41;;;;;;;;;;;;;;;;;;7363763;19;1849;-66
2023/03/04 08:26:09;;;;;;;;;;;;;;;;;;7366032;19;837;-66
2023/03/04 08:28:37;;;;;;;;;;;;;;;;;;7365958;19;797;-66
2023/03/04 08:31:05;;;;;;;;;;;;;;;;;;7368585;19;2131;-64
2023/03/04 08:33:33;;;;;;;;;;;;;;;;;;7367601;19;956;-65
2023/03/04 08:36:01;;;;;;;;;;;;;;;;;;7368094;19;1620;-66
2023/03/04 08:38:30;;;;;;;;;;;;;;;;;;7370274;19;2087;-66
2023/03/04 08:40:58;;;;;;;;;;;;;;;;;;7365856;19;1361;-64
2023/03/04 08:43:27;;;;;;;;;;;;;;;;;;7363695;19;1850;-65
2023/03/04 08:45:55;;;;;;;;;;;;;;;;;;7368029;19;775;-64
2023/03/04 08:48:23;;;;;;;;;;;;;;;;;;7365427;19;794;-65
2023/03/04 08:50:51;;;;;;;;;;;;;;;;;;7367092;19;1349;-64
2023/03/04 08:53:19;;;;;;;;;;;;;;;;;;7367455;19;804;-65
2023/03/04 08:55:47;;;;;;;;;;;;;;;;;;7367906;19;843;-65
2023/03/04 08:58:15;;;;;;;;;;;;;;;;;;7367399;19;811;-65
2023/03/04 09:00:47;;;;;;;;;;;;;;;;;;7366751;19;1330;-64
2023/03/04 09:03:15;;;;;;;;;;;;;;;;;;7364721;19;1861;-66
2023/03/04 09:05:43;;;;;;;;;;;;;;;;;;7370165;19;1906;-66
2023/03/04 09:08:11;;;;;;;;;;;;;;;;;;7366523;19;827;-64
2023/03/04 09:10:39;;;;;;;;;;;;;;;;;;7367028;19;1357;-64
2023/03/04 09:13:10;;;;;;;;;;;;;;;;;;7365675;19;797;-64
2023/03/04 09:15:38;;;;;;;;;;;;;;;;;;7366170;19;699;-64
2023/03/04 09:18:06;;;;;;;;;;;;;;;;;;7364764;19;802;-64
2023/03/04 09:20:34;;;;;;;;;;;;;;;;;;7366142;19;795;-64
2023/03/04 09:23:02;;;;;;;;;;;;;;;;;;7362526;19;1851;-63
2023/03/04 09:25:31;;;;;;;;;;;;;;;;;;7366788;19;1900;-65
2023/03/04 09:27:59;;;;;;;;;;;;;;;;;;7364291;19;749;-64
2023/03/04 09:30:27;;;;;;;;;;;;;;;;;;7363595;19;854;-64
2023/03/04 09:32:56;;;;;;;;;;;;;;;;;;7362359;19;2309;-64
2023/03/04 09:35:24;;;;;;;;;;;;;;;;;;7364977;19;829;-64
2023/03/04 09:37:53;;;;;;;;;;;;;;;;;;7363228;19;769;-64
2023/03/04 09:40:21;;;;;;;;;;;;;;;;;;7363533;19;801;-64
2023/03/04 09:42:49;;;;;;;;;;;;;;;;;;7361582;19;1882;-64
2023/03/04 09:45:17;;;;;;;;;;;;;;;;;;7364294;19;815;-63
2023/03/04 09:47:45;;;;;;;;;;;;;;;;;;7363746;19;807;-63
2023/03/04 09:50:13;;;;;;;;;;;;;;;;;;7364459;19;806;-63
2023/03/04 09:52:42;;;;;;;;;;;;;;;;;;7363263;19;1283;-63
2023/03/04 09:55:10;;;;;;;;;;;;;;;;;;7365689;19;828;-63
2023/03/04 09:57:38;;;;;;;;;;;;;;;;;;7363137;19;842;-63
2023/03/04 10:00:07;;;;;;;;;;;;;;;;;;7368066;19;2062;-65
2023/03/04 10:02:38;;;;;;;;;;;;;;;;;;7362278;19;1891;-66
2023/03/04 10:05:07;;;;;;;;;;;;;;;;;;7366244;19;1969;-65
2023/03/04 10:07:35;;;;;;;;;;;;;;;;;;7367068;19;1925;-65
2023/03/04 10:10:03;;;;;;;;;;;;;;;;;;7367781;19;1923;-64
2023/03/04 10:12:31;;;;;;;;;;;;;;;;;;7363731;19;1864;-64
2023/03/04 10:15:00;;;;;;;;;;;;;;;;;;7365381;19;2196;-65
2023/03/04 10:17:28;;;;;;;;;;;;;;;;;;7365077;19;1929;-65
2023/03/04 10:19:56;;;;;;;;;;;;;;;;;;7366119;19;1904;-65
2023/03/04 10:22:24;;;;;;;;;;;;;;;;;;7365741;19;1865;-66
2023/03/04 10:24:52;;;;;;;;;;;;;;;;;;7367619;19;1925;-65
2023/03/04 10:27:22;;;;;;;;;;;;;;;;;;7366488;19;1646;-65
2023/03/04 10:29:50;;;;;;;;;;;;;;;;;;7365166;19;1813;-66
2023/03/04 10:32:18;;;;;;;;;;;;;;;;;;7364065;19;1920;-65
2023/03/04 10:34:49;;;;;;;;;;;;;;;;;;7363491;19;1643;-65
2023/03/04 10:37:18;;;;;;;;;;;;;;;;;;7363553;19;871;-65
2023/03/04 10:39:46;;;;;;;;;;;;;;;;;;7365494;19;1848;-64
2023/03/04 10:42:14;;;;;;;;;;;;;;;;;;7364872;19;1891;-64
2023/03/04 10:44:42;;;;;;;;;;;;;;;;;;7362844;19;1855;-65
2023/03/04 10:47:10;;;;;;;;;;;;;;;;;;7365060;19;1872;-66
2023/03/04 10:49:38;;;;;;;;;;;;;;;;;;7360614;19;936;-65
2023/03/04 10:52:07;;;;;;;;;;;;;;;;;;7362718;19;1925;-65
2023/03/04 10:54:35;;;;;;;;;;;;;;;;;;7362182;19;899;-65
2023/03/04 10:57:03;;;;;;;;;;;;;;;;;;7362694;19;794;-66
2023/03/04 10:59:31;;;;;;;;;;;;;;;;;;7362526;19;780;-66
2023/03/04 11:01:59;;;;;;;;;;;;;;;;;;7361557;19;1338;-65
2023/03/04 11:04:28;;;;;;;;;;;;;;;;;;7360602;19;1841;-65
2023/03/04 11:06:56;;;;;;;;;;;;;;;;;;7368438;19;776;-65
2023/03/04 11:09:24;;;;;;;;;;;;;;;;;;7372806;19;1640;-65
2023/03/04 11:11:52;;;;;;;;;;;;;;;;;;7366874;19;1263;-64
2023/03/04 11:14:20;;;;;;;;;;;;;;;;;;7368768;19;798;-65
2023/03/04 11:16:49;;;;;;;;;;;;;;;;;;7369471;19;881;-65
2023/03/04 11:19:17;;;;;;;;;;;;;;;;;;7368731;19;841;-65
2023/03/04 11:21:46;;;;;;;;;;;;;;;;;;7368368;19;1379;-64
2023/03/04 11:24:14;;;;;;;;;;;;;;;;;;7367407;19;1842;-65
2023/03/04 11:26:42;;;;;;;;;;;;;;;;;;7368607;19;1325;-67
2023/03/04 11:29:10;;;;;;;;;;;;;;;;;;7369270;19;831;-66
2023/03/04 11:31:39;;;;;;;;;;;;;;;;;;7368904;19;1353;-66
2023/03/04 11:34:07;;;;;;;;;;;;;;;;;;7369884;19;798;-67
2023/03/04 11:36:35;;;;;;;;;;;;;;;;;;7369680;19;849;-67
2023/03/04 11:39:03;;;;;;;;;;;;;;;;;;7368996;19;849;-66
2023/03/04 11:41:32;;;;;;;;;;;;;;;;;;7368723;19;1716;-66
2023/03/04 11:44:00;;;;;;;;;;;;;;;;;;7367925;19;1873;-67
2023/03/04 11:46:28;;;;;;;;;;;;;;;;;;7367612;19;834;-64
2023/03/04 11:48:56;;;;;;;;;;;;;;;;;;7367548;19;798;-66
2023/03/04 11:51:25;;;;;;;;;;;;;;;;;;7366353;19;1353;-66
2023/03/04 11:53:53;;;;;;;;;;;;;;;;;;7364059;19;815;-67
2023/03/04 11:56:21;;;;;;;;;;;;;;;;;;7367861;19;811;-68
2023/03/04 11:58:49;;;;;;;;;;;;;;;;;;7368070;19;1075;-67
2023/03/04 12:01:17;;;;;;;;;;;;;;;;;;7370923;19;1714;-67
2023/03/04 12:03:46;;;;;;;;;;;;;;;;;;7367202;19;1853;-66
2023/03/04 12:06:14;;;;;;;;;;;;;;;;;;7368814;19;882;-66
2023/03/04 12:08:42;;;;;;;;;;;;;;;;;;7367176;19;875;-65
2023/03/04 12:11:10;;;;;;;;;;;;;;;;;;7373092;19;1635;-66
2023/03/04 12:13:38;;;;;;;;;;;;;;;;;;7366539;19;814;-67
2023/03/04 12:16:06;;;;;;;;;;;;;;;;;;7368211;19;1608;-67
2023/03/04 12:18:35;;;;;;;;;;;;;;;;;;7367539;19;756;-66
2023/03/04 12:21:03;;;;;;;;;;;;;;;;;;7368576;19;1385;-66
2023/03/04 12:23:31;;;;;;;;;;;;;;;;;;7366639;19;1849;-66
2023/03/04 12:25:59;;;;;;;;;;;;;;;;;;7370622;19;1526;-66
2023/03/04 12:28:27;;;;;;;;;;;;;;;;;;7367088;19;818;-67
2023/03/04 12:30:56;;;;;;;;;;;;;;;;;;7368691;19;1251;-67
2023/03/04 12:33:24;;;;;;;;;;;;;;;;;;7367340;19;853;-67
2023/03/04 12:35:52;;;;;;;;;;;;;;;;;;7367039;19;878;-67
2023/03/04 12:38:20;;;;;;;;;;;;;;;;;;7368862;19;1836;-66
2023/03/04 12:40:48;;;;;;;;;;;;;;;;;;7367094;19;1263;-66
2023/03/04 12:43:17;;;;;;;;;;;;;;;;;;7365782;19;1830;-65
2023/03/04 12:45:45;;;;;;;;;;;;;;;;;;7366979;19;775;-65
2023/03/04 12:48:13;;;;;;;;;;;;;;;;;;7365869;19;829;-67
2023/03/04 12:50:41;;;;;;;;;;;;;;;;;;7364838;19;1503;-67
2023/03/04 12:53:09;;;;;;;;;;;;;;;;;;7371504;19;1060;-67
2023/03/04 12:55:37;;;;;;;;;;;;;;;;;;7370685;19;1488;-66
2023/03/04 12:58:06;;;;;;;;;;;;;;;;;;7365796;19;886;-66
2023/03/04 13:00:34;;;;;;;;;;;;;;;;;;7365842;19;866;-66
2023/03/04 13:03:02;;;;;;;;;;;;;;;;;;7362541;19;1833;-66
2023/03/04 13:05:30;;;;;;;;;;;;;;;;;;7367361;19;1842;-66
2023/03/04 13:07:59;;;;;;;;;;;;;;;;;;7364879;19;804;-67
2023/03/04 13:10:27;;;;;;;;;;;;;;;;;;7366401;19;786;-67
2023/03/04 13:12:55;;;;;;;;;;;;;;;;;;7362276;19;1723;-67
2023/03/04 13:15:23;;;;;;;;;;;;;;;;;;7365795;19;846;-67
2023/03/04 13:17:51;;;;;;;;;;;;;;;;;;7366672;19;791;-67
2023/03/04 13:20:20;;;;;;;;;;;;;;;;;;7365828;19;839;-67
2023/03/04 13:22:48;;;;;;;;;;;;;;;;;;7362656;19;1283;-67
2023/03/04 13:25:16;;;;;;;;;;;;;;;;;;7363140;19;1838;-67
2023/03/04 13:27:45;;;;;;;;;;;;;;;;;;7364690;19;731;-67
2023/03/04 13:30:13;;;;;;;;;;;;;;;;;;7367037;19;1989;-67
2023/03/04 13:32:41;;;;;;;;;;;;;;;;;;7361744;19;1864;-68
2023/03/04 13:35:09;;;;;;;;;;;;;;;;;;7362770;19;820;-68
2023/03/04 13:37:37;;;;;;;;;;;;;;;;;;7363135;19;776;-67
2023/03/04 13:40:05;;;;;;;;;;;;;;;;;;7365449;19;806;-67
2023/03/04 13:42:33;;;;;;;;;;;;;;;;;;7364037;19;1274;-66
2023/03/04 13:45:03;;;;;;;;;;;;;;;;;;7362409;19;1873;-66
2023/03/04 13:47:31;;;;;;;;;;;;;;;;;;7365798;19;868;-66
2023/03/04 13:49:59;;;;;;;;;;;;;;;;;;7365971;19;798;-66
2023/03/04 13:52:27;;;;;;;;;;;;;;;;;;7362884;19;1274;-66
2023/03/04 13:54:55;;;;;;;;;;;;;;;;;;7366322;19;792;-66
2023/03/04 13:57:23;;;;;;;;;;;;;;;;;;7364502;19;755;-66
2023/03/04 13:59:51;;;;;;;;;;;;;;;;;;7365360;19;794;-67
2023/03/04 14:02:21;;;;;;;;;;;;;;;;;;7367211;19;1831;-67
2023/03/04 14:04:49;;;;;;;;;;;;;;;;;;7363903;19;1850;-67
2023/03/04 14:07:17;;;;;;;;;;;;;;;;;;7366728;19;786;-66
2023/03/04 14:09:45;;;;;;;;;;;;;;;;;;7365814;19;849;-67
2023/03/04 14:12:14;;;;;;;;;;;;;;;;;;7362169;19;1335;-66
2023/03/04 14:14:42;;;;;;;;;;;;;;;;;;7366042;19;1739;-67
2023/03/04 14:17:10;;;;;;;;;;;;;;;;;;7365384;19;838;-67
2023/03/04 14:19:38;;;;;;;;;;;;;;;;;;7365661;19;823;-67
2023/03/04 14:22:06;;;;;;;;;;;;;;;;;;7363741;19;1330;-66
2023/03/04 14:24:34;;;;;;;;;;;;;;;;;;7364306;19;1856;-67
2023/03/04 14:27:02;;;;;;;;;;;;;;;;;;7365241;19;799;-67
2023/03/04 14:29:30;;;;;;;;;;;;;;;;;;7366754;19;1773;-67
2023/03/04 14:31:59;;;;;;;;;;;;;;;;;;7363771;19;1343;-66
2023/03/04 14:34:27;;;;;;;;;;;;;;;;;;7364626;19;834;-66
2023/03/04 14:36:55;;;;;;;;;;;;;;;;;;7365417;19;1593;-66
2023/03/04 14:39:23;;;;;;;;;;;;;;;;;;7360122;19;851;-66
2023/03/04 14:41:52;;;;;;;;;;;;;;;;;;7361273;19;1348;-68
2023/03/04 14:44:20;;;;;;;;;;;;;;;;;;7360962;19;1835;-67
2023/03/04 14:46:48;;;;;;;;;;;;;;;;;;7363111;19;794;-66
2023/03/04 14:49:16;;;;;;;;;;;;;;;;;;7366403;19;809;-66
2023/03/04 14:51:44;;;;;;;;;;;;;;;;;;7369757;19;1903;-66
2023/03/04 14:54:12;;;;;;;;;;;;;;;;;;7368467;19;789;-66
2023/03/04 14:56:41;;;;;;;;;;;;;;;;;;7368501;19;1817;-66
2023/03/04 14:59:09;;;;;;;;;;;;;;;;;;7368334;19;818;-66
2023/03/04 15:01:37;;;;;;;;;;;;;;;;;;7368892;19;1371;-67
2023/03/04 15:04:06;;;;;;;;;;;;;;;;;;7370556;19;1859;-67
2023/03/04 15:06:34;;;;;;;;;;;;;;;;;;7370091;19;866;-66
2023/03/04 15:09:02;;;;;;;;;;;;;;;;;;7365371;19;860;-67
2023/03/04 15:11:31;;;;;;;;;;;;;;;;;;7363649;19;1212;-67
2023/03/04 15:13:59;;;;;;;;;;;;;;;;;;7361353;19;830;-66
2023/03/04 15:16:27;;;;;;;;;;;;;;;;;;7361432;19;803;-67
2023/03/04 15:18:55;;;;;;;;;;;;;;;;;;7361250;19;793;-66
2023/03/04 15:21:23;;;;;;;;;;;;;;;;;;7367199;19;1331;-66
2023/03/04 15:23:52;;;;;;;;;;;;;;;;;;7365620;19;1845;-66
2023/03/04 15:26:20;;;;;;;;;;;;;;;;;;7368448;19;1636;-65
2023/03/04 15:28:48;;;;;;;;;;;;;;;;;;7367285;19;1610;-66
2023/03/04 15:31:16;;;;;;;;;;;;;;;;;;7362675;19;1313;-66
2023/03/04 15:33:44;;;;;;;;;;;;;;;;;;7364639;19;849;-66
2023/03/04 15:36:12;;;;;;;;;;;;;;;;;;7366102;19;1602;-66
2023/03/04 15:38:40;;;;;;;;;;;;;;;;;;7363326;19;839;-67
2023/03/04 15:41:08;;;;;;;;;;;;;;;;;;7362905;19;1284;-66
2023/03/04 15:43:37;;;;;;;;;;;;;;;;;;7362451;19;1845;-66
2023/03/04 15:46:05;;;;;;;;;;;;;;;;;;7362951;19;767;-66
2023/03/04 15:48:33;;;;;;;;;;;;;;;;;;7361548;19;830;-67
2023/03/04 15:51:01;;;;;;;;;;;;;;;;;;7366417;19;1855;-67
2023/03/04 15:53:29;;;;;;;;;;;;;;;;;;7369579;19;712;-67
2023/03/04 15:55:57;;;;;;;;;;;;;;;;;;7369706;19;831;-67
2023/03/04 15:58:26;;;;;;;;;;;;;;;;;;7368394;19;823;-67
2023/03/04 16:00:54;;;;;;;;;;;;;;;;;;7367372;19;1298;-67
2023/03/04 16:03:22;;;;;;;;;;;;;;;;;;7368346;19;831;-66
2023/03/04 16:05:50;;;;;;;;;;;;;;;;;;7366869;19;1845;-67
2023/03/04 16:08:18;;;;;;;;;;;;;;;;;;7367802;19;823;-66
2023/03/04 16:10:46;;;;;;;;;;;;;;;;;;7367594;19;1333;-66
2023/03/04 16:13:15;;;;;;;;;;;;;;;;;;7369376;19;2160;-66
2023/03/04 16:15:43;;;;;;;;;;;;;;;;;;7367216;19;863;-67
2023/03/04 16:18:11;;;;;;;;;;;;;;;;;;7365354;19;787;-67
2023/03/04 16:20:39;;;;;;;;;;;;;;;;;;7366054;19;813;-67
2023/03/04 16:23:07;;;;;;;;;;;;;;;;;;7365827;19;834;-67
2023/03/04 16:25:35;;;;;;;;;;;;;;;;;;7364857;19;1843;-67
2023/03/04 16:28:03;;;;;;;;;;;;;;;;;;7368150;19;792;-66
2023/03/04 16:30:32;;;;;;;;;;;;;;;;;;7367176;19;771;-66
2023/03/04 16:33:00;;;;;;;;;;;;;;;;;;7365028;19;1271;-66
2023/03/04 16:35:28;;;;;;;;;;;;;;;;;;7367416;19;815;-66
2023/03/04 16:37:57;;;;;;;;;;;;;;;;;;7367001;19;891;-65
2023/03/04 16:40:25;;;;;;;;;;;;;;;;;;7368043;19;1687;-66
2023/03/04 16:42:53;;;;;;;;;;;;;;;;;;7368280;19;1965;-66
2023/03/04 16:45:21;;;;;;;;;;;;;;;;;;7365115;19;1861;-66
2023/03/04 16:47:50;;;;;;;;;;;;;;;;;;7367295;19;897;-66
2023/03/04 16:50:18;;;;;;;;;;;;;;;;;;7367319;19;803;-66
2023/03/04 16:52:46;;;;;;;;;;;;;;;;;;7365499;19;1224;-65
2023/03/04 16:55:15;;;;;;;;;;;;;;;;;;7366848;19;779;-65
2023/03/04 16:57:43;;;;;;;;;;;;;;;;;;7366333;19;802;-65
2023/03/04 17:00:11;;;;;;;;;;;;;;;;;;7366243;19;836;-65
2023/03/04 17:02:39;;;;;;;;;;;;;;;;;;7362738;19;1338;-65
2023/03/04 17:05:07;;;;;;;;;;;;;;;;;;7364513;19;1869;-65
2023/03/04 17:07:35;;;;;;;;;;;;;;;;;;7366655;19;807;-65
2023/03/04 17:10:03;;;;;;;;;;;;;;;;;;7366510;19;854;-65
2023/03/04 17:12:32;;;;;;;;;;;;;;;;;;7369294;19;1825;-64
2023/03/04 17:15:02;;;;;;;;;;;;;;;;;;7367033;19;778;-65
2023/03/04 17:17:31;;;;;;;;;;;;;;;;;;7367820;19;735;-65